Time;durP1;ratioP1;P1;durP2;ratioP2;P2;SDS_P1;SDS_P2;PMS_P1;PMS_P2;Temp;Humidity;BMP_temperature;BMP_pressure;BME280_temperature;BME280_humidity;BME280_pressure;Samples;Min_cycle;Max_cycle;Signal;HPM_P1;HPM_P2
2023/09/02 00:00:49;;;;;;;4.40;1.20;;;;;;;;;;4995842;28;20201;-66
2023/09/02 00:03:16;;;;;;;1.10;1.10;;;;;;;;;;5000930;28;20212;-66
2023/09/02 00:05:43;;;;;;;2.10;1.30;;;;;;;;;;5000612;28;20227;-66
2023/09/02 00:08:10;;;;;;;1.20;1.20;;;;;;;;;;5002395;28;20209;-67
2023/09/02 00:10:37;;;;;;;1.35;1.10;;;;;;;;;;5001788;28;20201;-65
2023/09/02 00:13:04;;;;;;;4.28;1.15;;;;;;;;;;5001969;28;20209;-66
2023/09/02 00:15:32;;;;;;;2.80;1.20;;;;;;;;;;5005586;28;20204;-66
2023/09/02 00:18:00;;;;;;;1.50;0.88;;;;;;;;;;5003061;28;20207;-66
2023/09/02 00:20:27;;;;;;;1.40;1.30;;;;;;;;;;5000174;28;20203;-66
2023/09/02 00:22:54;;;;;;;1.20;1.10;;;;;;;;;;5003163;28;20233;-66
2023/09/02 00:25:22;;;;;;;2.13;1.20;;;;;;;;;;5002930;28;20224;-66
2023/09/02 00:27:49;;;;;;;1.13;1.02;;;;;;;;;;5001184;28;20205;-66
2023/09/02 00:30:16;;;;;;;1.80;1.10;;;;;;;;;;4999659;28;20212;-66
2023/09/02 00:32:44;;;;;;;0.90;0.90;;;;;;;;;;5000741;28;20215;-65
2023/09/02 00:35:12;;;;;;;1.67;1.10;;;;;;;;;;5001157;28;20205;-66
2023/09/02 00:37:39;;;;;;;0.93;0.93;;;;;;;;;;5000810;28;20211;-66
2023/09/02 00:40:09;;;;;;;1.20;1.08;;;;;;;;;;5003365;28;20204;-66
2023/09/02 00:42:36;;;;;;;0.88;0.88;;;;;;;;;;4999767;28;20236;-65
2023/09/02 00:45:04;;;;;;;1.27;1.00;;;;;;;;;;5002789;28;20229;-66
2023/09/02 00:47:31;;;;;;;1.20;0.90;;;;;;;;;;5002130;28;20206;-66
2023/09/02 00:50:00;;;;;;;0.93;0.93;;;;;;;;;;5002616;28;20194;-66
2023/09/02 00:52:28;;;;;;;1.00;1.00;;;;;;;;;;5000231;28;20197;-66
2023/09/02 00:54:56;;;;;;;1.50;1.30;;;;;;;;;;5004058;28;20201;-66
2023/09/02 00:57:23;;;;;;;1.20;1.20;;;;;;;;;;5004340;28;20215;-66
2023/09/02 00:59:50;;;;;;;2.60;1.30;;;;;;;;;;5006933;28;20311;-66
2023/09/02 01:02:18;;;;;;;7.85;1.45;;;;;;;;;;5001498;28;20206;-70
2023/09/02 01:04:45;;;;;;;18.63;1.90;;;;;;;;;;5000246;28;20223;-69
2023/09/02 01:07:12;;;;;;;30.27;2.00;;;;;;;;;;5000399;28;20296;-69
2023/09/02 01:09:41;;;;;;;48.58;2.38;;;;;;;;;;5000201;28;20205;-69
2023/09/02 01:12:10;;;;;;;1.17;1.17;;;;;;;;;;4999781;28;20209;-70
2023/09/02 01:14:37;;;;;;;1.80;1.40;;;;;;;;;;4999124;28;20209;-70
2023/09/02 01:17:04;;;;;;;2.15;1.20;;;;;;;;;;5000545;28;20197;-70
2023/09/02 01:19:31;;;;;;;4.45;1.30;;;;;;;;;;5004512;28;20209;-70
2023/09/02 01:22:07;;;;;;;3.40;1.10;;;;;;;;;;5000668;28;20198;-69
2023/09/02 01:24:50;;;;;;;2.10;1.20;;;;;;;;;;5000058;28;20232;-70
2023/09/02 01:27:21;;;;;;;1.15;1.10;;;;;;;;;;4999099;28;20204;-70
2023/09/02 01:29:50;;;;;;;1.15;1.10;;;;;;;;;;4999726;28;20211;-70
2023/09/02 01:32:18;;;;;;;4.60;1.27;;;;;;;;;;4999700;28;20222;-70
2023/09/02 01:34:46;;;;;;;4.53;1.23;;;;;;;;;;5001606;28;20205;-70
2023/09/02 01:37:14;;;;;;;10.98;1.42;;;;;;;;;;5003482;28;20205;-70
2023/09/02 01:39:43;;;;;;;1.30;1.20;;;;;;;;;;4999784;28;20200;-70
2023/09/02 01:42:11;;;;;;;15.18;1.70;;;;;;;;;;5000976;28;20204;-70
2023/09/02 01:44:40;;;;;;;2.55;1.17;;;;;;;;;;5002243;28;20244;-70
2023/09/02 01:47:07;;;;;;;5.60;1.38;;;;;;;;;;5001063;28;20205;-70
2023/09/02 01:49:34;;;;;;;17.05;1.50;;;;;;;;;;5000679;28;20210;-70
2023/09/02 01:52:01;;;;;;;10.95;1.40;;;;;;;;;;5002127;28;20387;-70
2023/09/02 01:54:29;;;;;;;10.15;1.52;;;;;;;;;;5000906;28;20212;-70
2023/09/02 01:56:56;;;;;;;4.35;1.40;;;;;;;;;;5001632;28;20209;-70
2023/09/02 01:59:24;;;;;;;14.70;1.60;;;;;;;;;;5002591;28;20247;-70
2023/09/02 02:01:52;;;;;;;5.05;1.30;;;;;;;;;;4998974;28;20212;-69
2023/09/02 02:04:21;;;;;;;1.90;1.48;;;;;;;;;;5003228;28;20208;-70
2023/09/02 02:06:49;;;;;;;1.20;1.20;;;;;;;;;;5004862;28;20201;-70
2023/09/02 02:09:18;;;;;;;4.40;1.25;;;;;;;;;;5001812;28;20210;-66
2023/09/02 02:11:47;;;;;;;1.98;1.40;;;;;;;;;;5000856;28;20216;-66
2023/09/02 02:14:14;;;;;;;5.22;1.17;;;;;;;;;;4998228;28;20204;-66
2023/09/02 02:16:41;;;;;;;6.15;0.90;;;;;;;;;;5002120;28;20212;-66
2023/09/02 02:19:09;;;;;;;4.78;1.05;;;;;;;;;;5001572;28;20205;-67
2023/09/02 02:21:36;;;;;;;18.85;1.60;;;;;;;;;;4999474;28;20232;-66
2023/09/02 02:24:04;;;;;;;34.90;1.95;;;;;;;;;;5001486;28;20209;-66
2023/09/02 02:26:31;;;;;;;10.27;1.10;;;;;;;;;;5000647;28;20326;-66
2023/09/02 02:28:58;;;;;;;15.60;1.42;;;;;;;;;;5000058;28;20211;-65
2023/09/02 02:31:25;;;;;;;227.68;5.43;;;;;;;;;;4999144;28;20239;-66
2023/09/02 02:33:52;;;;;;;4.07;1.17;;;;;;;;;;4997379;28;20205;-66
2023/09/02 02:36:21;;;;;;;7.25;0.95;;;;;;;;;;5001622;28;20210;-66
2023/09/02 02:38:48;;;;;;;36.15;1.88;;;;;;;;;;4999222;28;20237;-66
2023/09/02 02:41:16;;;;;;;23.80;1.60;;;;;;;;;;4999577;28;20220;-66
2023/09/02 02:43:43;;;;;;;10.70;1.10;;;;;;;;;;4998528;28;20204;-66
2023/09/02 02:46:10;;;;;;;44.75;1.88;;;;;;;;;;4999088;28;20457;-66
2023/09/02 02:48:37;;;;;;;2.92;0.80;;;;;;;;;;5000407;28;20236;-66
2023/09/02 02:51:04;;;;;;;1.60;0.85;;;;;;;;;;5000073;28;20197;-66
2023/09/02 02:53:34;;;;;;;1.63;0.85;;;;;;;;;;4998137;28;20201;-66
2023/09/02 02:56:02;;;;;;;1.75;0.90;;;;;;;;;;5005565;28;20197;-65
2023/09/02 02:58:29;;;;;;;5.70;0.98;;;;;;;;;;4998380;28;20236;-66
2023/09/02 03:01:03;;;;;;;1.40;0.70;;;;;;;;;;5000527;28;20205;-66
2023/09/02 03:03:30;;;;;;;4.88;0.90;;;;;;;;;;4996635;28;20248;-65
2023/09/02 03:05:58;;;;;;;8.10;0.98;;;;;;;;;;4999472;28;20232;-66
2023/09/02 03:08:25;;;;;;;6.68;0.80;;;;;;;;;;4996656;28;20198;-66
2023/09/02 03:10:58;;;;;;;2.97;0.77;;;;;;;;;;5000190;28;20209;-66
2023/09/02 03:13:25;;;;;;;1.13;0.70;;;;;;;;;;5002873;28;20205;-66
2023/09/02 03:15:53;;;;;;;2.67;0.80;;;;;;;;;;4999421;28;20229;-66
2023/09/02 03:18:20;;;;;;;2.33;0.70;;;;;;;;;;5000297;28;20213;-65
2023/09/02 03:20:47;;;;;;;13.25;0.95;;;;;;;;;;5000449;28;20223;-66
2023/09/02 03:23:15;;;;;;;4.32;1.00;;;;;;;;;;5003412;28;20211;-65
2023/09/02 03:25:42;;;;;;;3.50;0.85;;;;;;;;;;4999243;28;20216;-65
2023/09/02 03:28:12;;;;;;;1.17;0.60;;;;;;;;;;4997433;28;20201;-66
2023/09/02 03:30:39;;;;;;;11.05;1.20;;;;;;;;;;5000158;28;20212;-65
2023/09/02 03:33:07;;;;;;;1.60;0.75;;;;;;;;;;4998910;28;20295;-66
2023/09/02 03:35:38;;;;;;;11.25;0.98;;;;;;;;;;4998316;28;20209;-66
2023/09/02 03:38:06;;;;;;;4.38;0.70;;;;;;;;;;5001482;28;20276;-66
2023/09/02 03:40:33;;;;;;;1.90;0.70;;;;;;;;;;5002313;28;20205;-66
2023/09/02 03:43:00;;;;;;;0.60;0.60;;;;;;;;;;5005579;28;20207;-66
2023/09/02 03:45:28;;;;;;;0.60;0.60;;;;;;;;;;5003170;28;20225;-65
2023/09/02 03:47:55;;;;;;;0.43;0.43;;;;;;;;;;5003214;28;20216;-66
2023/09/02 03:50:24;;;;;;;9.48;0.77;;;;;;;;;;5005233;28;20201;-66
2023/09/02 03:52:51;;;;;;;4.45;0.73;;;;;;;;;;5003038;28;20208;-65
2023/09/02 03:55:19;;;;;;;5.78;0.60;;;;;;;;;;5004446;28;20197;-65
2023/09/02 03:57:46;;;;;;;8.55;0.70;;;;;;;;;;5002865;28;20213;-65
2023/09/02 04:00:14;;;;;;;4.63;0.60;;;;;;;;;;5005825;28;20228;-65
2023/09/02 04:02:42;;;;;;;4.90;0.60;;;;;;;;;;5000539;28;20248;-66
2023/09/02 04:05:10;;;;;;;14.90;1.25;;;;;;;;;;5003522;28;20272;-66
2023/09/02 04:07:37;;;;;;;7.07;0.70;;;;;;;;;;5006779;28;20292;-65
2023/09/02 04:10:04;;;;;;;3.47;0.70;;;;;;;;;;5003085;28;20205;-65
2023/09/02 04:12:31;;;;;;;3.40;0.43;;;;;;;;;;5002696;28;20202;-65
2023/09/02 04:14:59;;;;;;;0.40;0.40;;;;;;;;;;5002870;28;20202;-65
2023/09/02 04:17:26;;;;;;;10.82;0.98;;;;;;;;;;5001288;28;20201;-65
2023/09/02 04:19:54;;;;;;;1.45;0.40;;;;;;;;;;4999664;28;20209;-65
2023/09/02 04:22:22;;;;;;;5.15;0.57;;;;;;;;;;5003841;28;20205;-65
2023/09/02 04:24:49;;;;;;;5.20;0.70;;;;;;;;;;5002857;28;20205;-65
2023/09/02 04:27:16;;;;;;;8.60;0.70;;;;;;;;;;4998773;28;20232;-66
2023/09/02 04:29:43;;;;;;;1.77;0.50;;;;;;;;;;5003048;28;20207;-66
2023/09/02 04:32:11;;;;;;;0.60;0.60;;;;;;;;;;5003081;28;20197;-65
2023/09/02 04:34:39;;;;;;;4.75;0.77;;;;;;;;;;5001252;28;20212;-65
2023/09/02 04:37:07;;;;;;;2.38;0.40;;;;;;;;;;5002966;28;20208;-66
2023/09/02 04:39:34;;;;;;;12.27;0.85;;;;;;;;;;5002614;28;20313;-66
2023/09/02 04:42:01;;;;;;;25.30;1.10;;;;;;;;;;5003654;28;20205;-66
2023/09/02 04:44:28;;;;;;;8.20;0.70;;;;;;;;;;5005838;28;20205;-66
2023/09/02 04:46:56;;;;;;;1.35;0.40;;;;;;;;;;5002040;28;20224;-66
2023/09/02 04:49:23;;;;;;;44.22;1.83;;;;;;;;;;5001671;28;20213;-65
2023/09/02 04:51:50;;;;;;;4.18;0.57;;;;;;;;;;5000383;28;20215;-65
2023/09/02 04:54:18;;;;;;;18.55;1.02;;;;;;;;;;5005660;28;20205;-65
2023/09/02 04:56:45;;;;;;;24.33;1.00;;;;;;;;;;4999018;28;20197;-66
2023/09/02 04:59:13;;;;;;;83.28;2.50;;;;;;;;;;5003146;28;20236;-65
2023/09/02 05:01:40;;;;;;;36.00;1.65;;;;;;;;;;5003022;28;20212;-65
2023/09/02 05:04:07;;;;;;;48.25;1.98;;;;;;;;;;5005956;28;20207;-66
2023/09/02 05:06:34;;;;;;;169.75;4.70;;;;;;;;;;5001234;28;20223;-65
2023/09/02 05:09:01;;;;;;;30.73;1.40;;;;;;;;;;5001028;28;20205;-65
2023/09/02 05:11:29;;;;;;;17.35;1.30;;;;;;;;;;5003438;28;20205;-65
2023/09/02 05:13:57;;;;;;;155.00;4.35;;;;;;;;;;5003589;28;21824;-66
2023/09/02 05:16:24;;;;;;;46.78;2.50;;;;;;;;;;5004010;28;20219;-65
2023/09/02 05:18:51;;;;;;;30.50;1.50;;;;;;;;;;5001282;28;20215;-66
2023/09/02 05:21:18;;;;;;;8.77;1.60;;;;;;;;;;4998044;28;20207;-66
2023/09/02 05:23:45;;;;;;;6.43;1.15;;;;;;;;;;4998000;28;20292;-66
2023/09/02 05:26:13;;;;;;;10.40;1.52;;;;;;;;;;5002104;28;20222;-65
2023/09/02 05:28:41;;;;;;;4.82;1.02;;;;;;;;;;5002159;28;20205;-66
2023/09/02 05:31:08;;;;;;;25.55;1.60;;;;;;;;;;5005065;28;20205;-66
2023/09/02 05:33:35;;;;;;;31.58;2.05;;;;;;;;;;5001883;28;20212;-66
2023/09/02 05:36:02;;;;;;;40.53;1.95;;;;;;;;;;5002912;28;20762;-66
2023/09/02 05:38:29;;;;;;;17.50;1.42;;;;;;;;;;5002244;28;20197;-65
2023/09/02 05:40:57;;;;;;;59.25;2.80;;;;;;;;;;5004829;28;20200;-65
2023/09/02 05:43:25;;;;;;;59.97;2.65;;;;;;;;;;5004004;28;20205;-67
2023/09/02 05:45:53;;;;;;;10.77;1.27;;;;;;;;;;5000353;28;20216;-66
2023/09/02 05:48:20;;;;;;;25.45;1.50;;;;;;;;;;5002934;28;20198;-66
2023/09/02 05:50:47;;;;;;;29.45;1.95;;;;;;;;;;4999800;28;20212;-66
2023/09/02 05:53:14;;;;;;;48.00;2.85;;;;;;;;;;4998815;28;20208;-66
2023/09/02 05:55:41;;;;;;;46.22;2.25;;;;;;;;;;4997528;28;20204;-65
2023/09/02 05:58:09;;;;;;;7.43;1.30;;;;;;;;;;4999495;28;20212;-65
2023/09/02 06:00:36;;;;;;;8.55;1.40;;;;;;;;;;5005897;28;20240;-65
2023/09/02 06:03:05;;;;;;;65.97;2.90;;;;;;;;;;5000714;28;20205;-67
2023/09/02 06:05:32;;;;;;;54.50;2.75;;;;;;;;;;4999404;28;20213;-65
2023/09/02 06:07:59;;;;;;;61.08;2.78;;;;;;;;;;5001648;28;20227;-66
2023/09/02 06:10:26;;;;;;;21.63;1.65;;;;;;;;;;5009694;28;20205;-65
2023/09/02 06:12:53;;;;;;;5.05;1.15;;;;;;;;;;5003983;28;20205;-65
2023/09/02 06:15:20;;;;;;;32.55;1.70;;;;;;;;;;5001567;28;20197;-66
2023/09/02 06:17:48;;;;;;;1.88;0.90;;;;;;;;;;5000931;28;20213;-66
2023/09/02 06:20:20;;;;;;;45.05;2.38;;;;;;;;;;4998145;28;20209;-66
2023/09/02 06:22:47;;;;;;;114.28;4.15;;;;;;;;;;5001382;28;20205;-66
2023/09/02 06:25:14;;;;;;;20.05;1.52;;;;;;;;;;4999768;28;20211;-65
2023/09/02 06:27:41;;;;;;;94.40;3.75;;;;;;;;;;5001842;28;20253;-65
2023/09/02 06:30:09;;;;;;;25.13;1.70;;;;;;;;;;5000926;28;20209;-65
2023/09/02 06:32:36;;;;;;;21.42;1.48;;;;;;;;;;5001120;28;20220;-65
2023/09/02 06:35:05;;;;;;;4.50;0.82;;;;;;;;;;5000034;28;20213;-66
2023/09/02 06:37:33;;;;;;;1.23;0.82;;;;;;;;;;5001169;28;20288;-65
2023/09/02 06:40:00;;;;;;;10.55;1.27;;;;;;;;;;4995213;28;20217;-66
2023/09/02 06:42:27;;;;;;;2.35;1.13;;;;;;;;;;5000940;28;20200;-65
2023/09/02 06:44:55;;;;;;;77.55;3.30;;;;;;;;;;4998100;28;20209;-66
2023/09/02 06:47:22;;;;;;;2.47;1.00;;;;;;;;;;4998621;28;20214;-65
2023/09/02 06:49:49;;;;;;;1.95;0.80;;;;;;;;;;4998347;28;20216;-69
2023/09/02 06:52:16;;;;;;;3.50;0.80;;;;;;;;;;4996811;28;20209;-70
2023/09/02 06:54:44;;;;;;;4.68;0.80;;;;;;;;;;4996135;28;20206;-70
2023/09/02 06:57:12;;;;;;;1.85;0.82;;;;;;;;;;5001539;28;20207;-70
2023/09/02 06:59:39;;;;;;;1.25;0.60;;;;;;;;;;4999682;28;20240;-70
2023/09/02 07:02:06;;;;;;;1.65;0.70;;;;;;;;;;5000096;28;20204;-70
2023/09/02 07:04:33;;;;;;;4.30;0.60;;;;;;;;;;4999177;28;20210;-70
2023/09/02 07:07:00;;;;;;;7.85;0.90;;;;;;;;;;4995695;28;20226;-69
2023/09/02 07:09:27;;;;;;;0.60;0.60;;;;;;;;;;5001969;28;20207;-70
2023/09/02 07:11:56;;;;;;;0.68;0.68;;;;;;;;;;4997354;28;20227;-69
2023/09/02 07:14:23;;;;;;;0.60;0.60;;;;;;;;;;4990068;28;20227;-69
2023/09/02 07:16:50;;;;;;;0.70;0.70;;;;;;;;;;4994365;28;20209;-69
2023/09/02 07:19:17;;;;;;;0.40;0.40;;;;;;;;;;5003018;28;20200;-69
2023/09/02 07:21:45;;;;;;;0.77;0.77;;;;;;;;;;4999834;28;20210;-69
2023/09/02 07:24:12;;;;;;;0.70;0.70;;;;;;;;;;5003612;28;20226;-69
2023/09/02 07:26:39;;;;;;;0.68;0.68;;;;;;;;;;4998686;28;20224;-69
2023/09/02 07:29:07;;;;;;;0.60;0.60;;;;;;;;;;4999931;28;20217;-69
2023/09/02 07:31:34;;;;;;;0.88;0.88;;;;;;;;;;4998389;28;20224;-69
2023/09/02 07:34:02;;;;;;;1.08;1.00;;;;;;;;;;5002431;28;20220;-69
2023/09/02 07:36:29;;;;;;;5.05;0.88;;;;;;;;;;5003088;28;20213;-69
2023/09/02 07:38:56;;;;;;;1.17;0.80;;;;;;;;;;4997747;28;20233;-68
2023/09/02 07:41:23;;;;;;;22.45;1.35;;;;;;;;;;4996345;28;20213;-69
2023/09/02 07:43:50;;;;;;;3.30;0.90;;;;;;;;;;4999234;28;20205;-69
2023/09/02 07:46:19;;;;;;;0.82;0.80;;;;;;;;;;4998641;28;20201;-69
2023/09/02 07:48:48;;;;;;;4.50;0.93;;;;;;;;;;4999184;28;20213;-69
2023/09/02 07:51:15;;;;;;;0.70;0.70;;;;;;;;;;4999004;28;20237;-68
2023/09/02 07:53:42;;;;;;;79.60;3.08;;;;;;;;;;4998549;28;20227;-68
2023/09/02 07:56:09;;;;;;;2.25;1.10;;;;;;;;;;4998138;28;20214;-68
2023/09/02 07:58:37;;;;;;;1.42;1.00;;;;;;;;;;4993730;28;20211;-68
2023/09/02 08:01:04;;;;;;;1.83;1.40;;;;;;;;;;4998979;28;20229;-68
2023/09/02 08:03:32;;;;;;;1.50;1.40;;;;;;;;;;4992976;28;20209;-68
2023/09/02 08:06:05;;;;;;;11.05;1.33;;;;;;;;;;4997317;28;20299;-68
2023/09/02 08:08:32;;;;;;;1.95;1.10;;;;;;;;;;4996830;28;20230;-68
2023/09/02 08:11:02;;;;;;;1.50;1.40;;;;;;;;;;4999221;28;20220;-68
2023/09/02 08:13:29;;;;;;;1.20;1.10;;;;;;;;;;4997570;28;20204;-68
2023/09/02 08:15:56;;;;;;;1.23;1.23;;;;;;;;;;4993758;28;20202;-67
2023/09/02 08:18:24;;;;;;;1.27;1.23;;;;;;;;;;4999380;28;20197;-67
2023/09/02 08:20:52;;;;;;;2.10;1.50;;;;;;;;;;4997277;28;20203;-67
2023/09/02 08:23:19;;;;;;;1.60;1.50;;;;;;;;;;4996840;28;20229;-68
2023/09/02 08:25:46;;;;;;;1.55;1.45;;;;;;;;;;4997906;28;20232;-67
2023/09/02 08:28:13;;;;;;;2.28;1.65;;;;;;;;;;5002060;28;20217;-67
2023/09/02 08:30:41;;;;;;;2.95;2.00;;;;;;;;;;5000706;28;20207;-67
2023/09/02 08:33:08;;;;;;;1.80;1.70;;;;;;;;;;5001776;28;20209;-67
2023/09/02 08:35:36;;;;;;;1.92;1.83;;;;;;;;;;5002803;28;20197;-67
2023/09/02 08:38:04;;;;;;;1.67;1.50;;;;;;;;;;5000294;28;20252;-67
2023/09/02 08:40:32;;;;;;;1.30;1.20;;;;;;;;;;4997923;28;20214;-67
2023/09/02 08:43:02;;;;;;;2.65;1.05;;;;;;;;;;4998511;28;20214;-66
2023/09/02 08:45:30;;;;;;;1.67;1.30;;;;;;;;;;5001886;28;20255;-67
2023/09/02 08:48:00;;;;;;;1.52;1.00;;;;;;;;;;5001936;28;20224;-66
2023/09/02 08:50:28;;;;;;;1.73;1.10;;;;;;;;;;5002792;28;20215;-67
2023/09/02 08:52:55;;;;;;;0.73;0.73;;;;;;;;;;5004072;28;20209;-67
2023/09/02 08:55:25;;;;;;;0.82;0.82;;;;;;;;;;4993766;28;20205;-68
2023/09/02 08:57:53;;;;;;;1.55;0.95;;;;;;;;;;4994011;28;20204;-67
2023/09/02 09:00:20;;;;;;;0.98;0.80;;;;;;;;;;4999465;28;20240;-66
2023/09/02 09:02:48;;;;;;;0.98;0.95;;;;;;;;;;4999885;28;20208;-67
2023/09/02 09:05:15;;;;;;;0.90;0.90;;;;;;;;;;5001321;28;20304;-66
2023/09/02 09:07:42;;;;;;;0.85;0.80;;;;;;;;;;5004258;28;20232;-67
2023/09/02 09:10:10;;;;;;;0.90;0.90;;;;;;;;;;4994538;28;20211;-62
2023/09/02 09:12:39;;;;;;;0.55;0.55;;;;;;;;;;4995889;28;20212;-63
2023/09/02 09:15:08;;;;;;;0.80;0.80;;;;;;;;;;4997196;28;20204;-63
2023/09/02 09:17:35;;;;;;;1.40;0.88;;;;;;;;;;5003239;28;20197;-62
2023/09/02 09:20:03;;;;;;;1.10;0.90;;;;;;;;;;4999333;28;20205;-64
2023/09/02 09:22:30;;;;;;;0.70;0.70;;;;;;;;;;4998767;28;20228;-62
2023/09/02 09:24:58;;;;;;;0.90;0.90;;;;;;;;;;5003795;28;20193;-63
2023/09/02 09:27:26;;;;;;;1.65;0.80;;;;;;;;;;4998080;28;20312;-62
2023/09/02 09:29:54;;;;;;;1.58;0.90;;;;;;;;;;4996074;28;20571;-63
2023/09/02 09:32:23;;;;;;;1.25;0.90;;;;;;;;;;5001227;28;20205;-62
2023/09/02 09:34:50;;;;;;;0.80;0.80;;;;;;;;;;4998386;28;20237;-62
2023/09/02 09:37:18;;;;;;;0.60;0.60;;;;;;;;;;4996853;28;20198;-64
2023/09/02 09:39:46;;;;;;;1.15;0.68;;;;;;;;;;4994033;28;20305;-63
2023/09/02 09:42:14;;;;;;;1.10;0.70;;;;;;;;;;5003069;28;20209;-63
2023/09/02 09:44:52;;;;;;;0.88;0.88;;;;;;;;;;5004278;28;20219;-63
2023/09/02 09:47:21;;;;;;;2.65;0.70;;;;;;;;;;5001948;28;20243;-63
2023/09/02 09:49:50;;;;;;;0.90;0.90;;;;;;;;;;5008526;28;20212;-64
2023/09/02 09:52:17;;;;;;;1.33;0.90;;;;;;;;;;5004609;28;20212;-63
2023/09/02 09:54:47;;;;;;;0.82;0.82;;;;;;;;;;5002162;28;20219;-63
2023/09/02 09:57:16;;;;;;;0.70;0.70;;;;;;;;;;5004444;28;20205;-63
2023/09/02 09:59:51;;;;;;;1.55;0.88;;;;;;;;;;5010448;28;20236;-63
2023/09/02 10:02:18;;;;;;;2.15;0.80;;;;;;;;;;4997955;28;20201;-64
2023/09/02 10:04:53;;;;;;;0.70;0.70;;;;;;;;;;4991464;28;20236;-63
2023/09/02 10:07:23;;;;;;;0.80;0.80;;;;;;;;;;5004600;28;20228;-63
2023/09/02 10:09:50;;;;;;;0.73;0.70;;;;;;;;;;4997446;28;20275;-64
2023/09/02 10:12:18;;;;;;;1.25;0.90;;;;;;;;;;5004735;28;20207;-63
2023/09/02 10:14:45;;;;;;;0.82;0.82;;;;;;;;;;5000174;28;20217;-63
2023/09/02 10:17:13;;;;;;;2.30;0.70;;;;;;;;;;4998759;28;20201;-63
2023/09/02 10:19:41;;;;;;;0.80;0.80;;;;;;;;;;5004249;28;20321;-62
2023/09/02 10:22:09;;;;;;;0.80;0.80;;;;;;;;;;5002593;28;20209;-62
2023/09/02 10:24:40;;;;;;;0.70;0.70;;;;;;;;;;5000791;28;20215;-63
2023/09/02 10:27:11;;;;;;;0.80;0.80;;;;;;;;;;4995934;28;20213;-63
2023/09/02 10:29:43;;;;;;;0.70;0.70;;;;;;;;;;4998425;28;20205;-62
2023/09/02 10:32:13;;;;;;;0.80;0.80;;;;;;;;;;4999324;28;20243;-63
2023/09/02 10:34:41;;;;;;;0.95;0.68;;;;;;;;;;4999446;28;20205;-62
2023/09/02 10:37:14;;;;;;;2.35;0.90;;;;;;;;;;5003545;28;20299;-62
2023/09/02 10:39:45;;;;;;;0.80;0.80;;;;;;;;;;4996831;28;20209;-63
2023/09/02 10:42:13;;;;;;;1.13;0.80;;;;;;;;;;5000573;28;20202;-63
2023/09/02 10:44:40;;;;;;;0.77;0.70;;;;;;;;;;5000905;28;20209;-62
2023/09/02 10:47:08;;;;;;;0.80;0.80;;;;;;;;;;4997064;28;20197;-62
2023/09/02 10:49:36;;;;;;;0.82;0.82;;;;;;;;;;4999112;28;20221;-62
2023/09/02 10:52:03;;;;;;;0.80;0.80;;;;;;;;;;4996675;28;20239;-62
2023/09/02 10:54:45;;;;;;;0.75;0.75;;;;;;;;;;5008623;28;20291;-62
2023/09/02 10:57:14;;;;;;;1.15;0.80;;;;;;;;;;4999880;28;20204;-63
2023/09/02 10:59:41;;;;;;;0.82;0.68;;;;;;;;;;5000778;28;20248;-63
2023/09/02 11:02:08;;;;;;;0.90;0.90;;;;;;;;;;4998226;28;20233;-63
2023/09/02 11:04:59;;;;;;;0.80;0.80;;;;;;;;;;4997704;28;20224;-63
2023/09/02 11:07:26;;;;;;;1.38;0.77;;;;;;;;;;4995866;28;20201;-63
2023/09/02 11:09:54;;;;;;;0.82;0.82;;;;;;;;;;5003032;28;20209;-62
2023/09/02 11:12:23;;;;;;;0.80;0.80;;;;;;;;;;5002774;28;20220;-62
2023/09/02 11:15:09;;;;;;;0.80;0.80;;;;;;;;;;4995578;28;20285;-63
2023/09/02 11:17:36;;;;;;;1.27;0.80;;;;;;;;;;4995486;28;20217;-62
2023/09/02 11:20:04;;;;;;;0.80;0.75;;;;;;;;;;5002888;28;20209;-63
2023/09/02 11:22:47;;;;;;;1.80;0.80;;;;;;;;;;5004166;28;20205;-62
2023/09/02 11:25:24;;;;;;;1.20;0.80;;;;;;;;;;5002447;28;20232;-62
2023/09/02 11:27:53;;;;;;;1.73;0.88;;;;;;;;;;4995692;28;20224;-62
2023/09/02 11:30:20;;;;;;;1.45;0.75;;;;;;;;;;4999937;28;20224;-62
2023/09/02 11:32:47;;;;;;;0.98;0.70;;;;;;;;;;5000436;28;20215;-62
2023/09/02 11:35:16;;;;;;;0.80;0.80;;;;;;;;;;4995714;28;20300;-63
2023/09/02 11:37:43;;;;;;;1.80;0.80;;;;;;;;;;5001652;28;20205;-63
2023/09/02 11:40:14;;;;;;;1.15;0.70;;;;;;;;;;4995516;28;20210;-62
2023/09/02 11:42:48;;;;;;;0.73;0.70;;;;;;;;;;5002735;28;20208;-63
2023/09/02 11:45:17;;;;;;;1.75;0.70;;;;;;;;;;4994315;28;20213;-63
2023/09/02 11:47:44;;;;;;;1.08;0.98;;;;;;;;;;4999043;28;20212;-62
2023/09/02 11:50:15;;;;;;;1.77;0.85;;;;;;;;;;4998495;28;20205;-62
2023/09/02 11:52:42;;;;;;;2.03;0.80;;;;;;;;;;4995702;28;20488;-62
2023/09/02 11:55:10;;;;;;;0.70;0.70;;;;;;;;;;5001151;28;20209;-63
2023/09/02 11:57:37;;;;;;;0.70;0.70;;;;;;;;;;4999034;28;20206;-63
2023/09/02 12:00:06;;;;;;;2.20;0.95;;;;;;;;;;5006290;28;20229;-62
2023/09/02 12:02:36;;;;;;;2.67;0.82;;;;;;;;;;5001174;28;20240;-62
2023/09/02 12:05:03;;;;;;;0.80;0.80;;;;;;;;;;5003810;28;20210;-64
2023/09/02 12:07:30;;;;;;;0.88;0.80;;;;;;;;;;4998719;28;20324;-62
2023/09/02 12:09:58;;;;;;;0.50;0.50;;;;;;;;;;4996528;28;20235;-63
2023/09/02 12:12:25;;;;;;;0.90;0.90;;;;;;;;;;4995041;28;20217;-63
2023/09/02 12:14:52;;;;;;;0.90;0.90;;;;;;;;;;4999044;28;20200;-62
2023/09/02 12:17:22;;;;;;;0.60;0.60;;;;;;;;;;5002047;28;20213;-62
2023/09/02 12:19:50;;;;;;;2.80;0.80;;;;;;;;;;4999452;28;20210;-62
2023/09/02 12:22:18;;;;;;;1.00;0.80;;;;;;;;;;5007644;28;20216;-64
2023/09/02 12:24:45;;;;;;;0.75;0.68;;;;;;;;;;5003709;28;20224;-62
2023/09/02 12:27:16;;;;;;;0.68;0.68;;;;;;;;;;5006315;28;20212;-63
2023/09/02 12:29:54;;;;;;;1.35;0.73;;;;;;;;;;5003889;28;20245;-62
2023/09/02 12:32:21;;;;;;;0.70;0.70;;;;;;;;;;5003692;28;20229;-62
2023/09/02 12:34:48;;;;;;;1.50;0.68;;;;;;;;;;5002621;28;20231;-62
2023/09/02 12:37:17;;;;;;;1.08;0.90;;;;;;;;;;5005727;28;20212;-62
2023/09/02 12:39:44;;;;;;;0.80;0.80;;;;;;;;;;5009983;28;20252;-69
2023/09/02 12:42:17;;;;;;;0.77;0.77;;;;;;;;;;5006794;28;20207;-68
2023/09/02 12:44:49;;;;;;;0.98;0.70;;;;;;;;;;5001904;28;20206;-68
2023/09/02 12:47:18;;;;;;;0.70;0.70;;;;;;;;;;5000984;28;20212;-68
2023/09/02 12:49:45;;;;;;;1.15;0.68;;;;;;;;;;4999188;28;20229;-68
2023/09/02 12:52:17;;;;;;;0.93;0.70;;;;;;;;;;5006284;28;20206;-67
2023/09/02 12:54:46;;;;;;;1.48;0.68;;;;;;;;;;5002957;28;20201;-67
2023/09/02 12:57:13;;;;;;;0.60;0.60;;;;;;;;;;5001013;28;20206;-69
2023/09/02 12:59:40;;;;;;;0.85;0.75;;;;;;;;;;5000291;28;20241;-67
2023/09/02 13:02:07;;;;;;;0.70;0.70;;;;;;;;;;5002911;28;20209;-68
2023/09/02 13:04:35;;;;;;;0.60;0.60;;;;;;;;;;5007176;28;20209;-68
2023/09/02 13:07:02;;;;;;;0.60;0.60;;;;;;;;;;5003820;28;20216;-68
2023/09/02 13:09:31;;;;;;;3.72;1.10;;;;;;;;;;5001386;28;20225;-68
2023/09/02 13:11:58;;;;;;;0.60;0.60;;;;;;;;;;5003545;28;20220;-68
2023/09/02 13:14:25;;;;;;;0.60;0.60;;;;;;;;;;4998413;28;20207;-68
2023/09/02 13:16:52;;;;;;;1.55;0.50;;;;;;;;;;5000300;28;20208;-68
2023/09/02 13:19:20;;;;;;;1.17;0.77;;;;;;;;;;5000621;28;20196;-68
2023/09/02 13:21:47;;;;;;;0.80;0.80;;;;;;;;;;5007715;28;20210;-68
2023/09/02 13:24:15;;;;;;;1.77;0.65;;;;;;;;;;5000714;28;20459;-67
2023/09/02 13:26:45;;;;;;;0.75;0.60;;;;;;;;;;5005391;28;20206;-68
2023/09/02 13:29:13;;;;;;;2.83;0.80;;;;;;;;;;5001464;28;20221;-67
2023/09/02 13:31:40;;;;;;;0.98;0.70;;;;;;;;;;5004927;28;20212;-68
2023/09/02 13:34:07;;;;;;;0.73;0.73;;;;;;;;;;4997458;28;20213;-67
2023/09/02 13:36:34;;;;;;;0.75;0.75;;;;;;;;;;5003948;28;20201;-68
2023/09/02 13:39:02;;;;;;;0.73;0.70;;;;;;;;;;5003508;28;20197;-68
2023/09/02 13:41:29;;;;;;;1.05;0.90;;;;;;;;;;5000847;28;20220;-67
2023/09/02 13:43:57;;;;;;;0.70;0.70;;;;;;;;;;5002260;28;20201;-67
2023/09/02 13:46:23;;;;;;;1.00;0.80;;;;;;;;;;5009993;28;20197;-67
2023/09/02 13:48:50;;;;;;;2.00;0.90;;;;;;;;;;5004008;28;20316;-68
2023/09/02 13:51:22;;;;;;;0.70;0.70;;;;;;;;;;5004780;28;20215;-67
2023/09/02 13:53:49;;;;;;;1.60;0.80;;;;;;;;;;5000459;28;20232;-67
2023/09/02 13:56:16;;;;;;;1.30;0.60;;;;;;;;;;5003520;28;20201;-67
2023/09/02 13:58:46;;;;;;;0.75;0.73;;;;;;;;;;5000896;28;20212;-69
2023/09/02 14:01:14;;;;;;;1.52;0.77;;;;;;;;;;5010529;28;20209;-69
2023/09/02 14:03:43;;;;;;;0.60;0.60;;;;;;;;;;5003417;28;20211;-69
2023/09/02 14:06:10;;;;;;;0.70;0.70;;;;;;;;;;5001612;28;20203;-68
2023/09/02 14:08:38;;;;;;;1.80;0.75;;;;;;;;;;5005407;28;20221;-68
2023/09/02 14:11:06;;;;;;;0.60;0.60;;;;;;;;;;4998916;28;20209;-68
2023/09/02 14:13:36;;;;;;;0.88;0.73;;;;;;;;;;5001439;28;20204;-67
2023/09/02 14:16:04;;;;;;;1.55;0.93;;;;;;;;;;5004986;28;20224;-68
2023/09/02 14:18:32;;;;;;;1.75;1.10;;;;;;;;;;4999912;28;20200;-68
2023/09/02 14:20:59;;;;;;;1.92;0.70;;;;;;;;;;5004617;28;20204;-67
2023/09/02 14:23:26;;;;;;;0.70;0.70;;;;;;;;;;5001955;28;20210;-67
2023/09/02 14:25:54;;;;;;;0.85;0.80;;;;;;;;;;5000565;28;20200;-68
2023/09/02 14:28:21;;;;;;;0.60;0.60;;;;;;;;;;5002232;28;20213;-68
2023/09/02 14:30:48;;;;;;;0.82;0.82;;;;;;;;;;5001316;28;20228;-67
2023/09/02 14:33:16;;;;;;;1.02;0.93;;;;;;;;;;5000262;28;20209;-68
2023/09/02 14:35:44;;;;;;;0.73;0.73;;;;;;;;;;5000123;28;20213;-68
2023/09/02 14:38:12;;;;;;;0.60;0.60;;;;;;;;;;5003586;28;20663;-67
2023/09/02 14:40:39;;;;;;;1.10;0.90;;;;;;;;;;5002075;28;20208;-68
2023/09/02 14:43:06;;;;;;;0.93;0.80;;;;;;;;;;4997767;28;20404;-69
2023/09/02 14:45:33;;;;;;;1.80;0.90;;;;;;;;;;5001674;28;20204;-68